CheckWX is a tool to help pilots better visualize weather data.  It is not intended as a substitute for an official pre-flight weather briefing.

19:15:38 UTC

BIIS METAR
Ísafjörður Airport
Ísafjörður, Iceland
Current

1 hour ago

BIIS 261800Z 02010KT CAVOK 10/M01 Q1015
Observed
May-26 @ 18:00 UTC
Wind
  • 020° at 10 KTS
Visibility
10,000+ meters
Flight Rules
VFR
Cloud Levels
  • Clear skies
Temperature
10°C / 50°F
Dewpoint
-1°C / 30°F
Humidity
47%
Altimeter
29.97" Hg
Pressure
1014.92 hPa
Previous

2 hours ago

BIIS 261700Z 02012KT CAVOK 10/M00 Q1015
Observed
May-26 @ 17:00 UTC
Wind
  • 020° at 12 KTS
Visibility
10,000+ meters
Flight Rules
VFR
Cloud Levels
  • Clear skies
Temperature
10°C / 50°F
Dewpoint
C / 32°F
Humidity
50%
Altimeter
29.97" Hg
Pressure
1014.92 hPa
Previous

3 hours ago

BIIS 261600Z 03011KT CAVOK 10/01 Q1016
Observed
May-26 @ 16:00 UTC
Wind
  • 030° at 11 KTS
Visibility
10,000+ meters
Flight Rules
VFR
Cloud Levels
  • Clear skies
Temperature
10°C / 50°F
Dewpoint
C / 34°F
Humidity
54%
Altimeter
30" Hg
Pressure
1015.92 hPa